Terminal Aerodrome Forecast
Issued by NWS

Home | Current Version | Previous Version | Text Only | Print | Product List | Glossary On
Versions: 1 2 3 4 5 6 7 8 9 10 11 12 13 14 15
000
FTUS44 KLIX 300500
TAFMCB
TAF
KMCB 300526Z 3006/0106 00000KT P6SM FEW040
     FM301000 00000KT 4SM BR FEW050 SCT090
     FM301400 09004KT P6SM SCT050=

USA.gov is the U.S. government's official web portal to all federal, state and local government web resources and services.